createdAt,value
2022-10-09T00:01:19.826Z,6.73
2022-10-09T00:03:48.582Z,5.50
2022-10-09T00:06:21.348Z,4.37
2022-10-09T00:08:48.173Z,7.43
2022-10-09T00:11:24.427Z,4.80
2022-10-09T00:13:52.697Z,4.13
2022-10-09T00:16:20.864Z,7.50
2022-10-09T00:18:48.246Z,2.73
2022-10-09T00:21:23.033Z,3.23
2022-10-09T00:23:50.947Z,3.20
2022-10-09T00:26:18.341Z,3.13
2022-10-09T00:28:46.060Z,2.70
2022-10-09T00:31:13.771Z,3.63
2022-10-09T00:33:41.045Z,5.17
2022-10-09T00:36:12.374Z,3.30
2022-10-09T00:38:39.262Z,3.60
2022-10-09T00:41:06.735Z,2.77
2022-10-09T00:43:54.856Z,4.60
2022-10-09T00:46:26.483Z,5.53
2022-10-09T00:49:20.215Z,6.87
2022-10-09T00:51:49.257Z,6.70
2022-10-09T00:54:22.760Z,7.37
2022-10-09T00:56:50.721Z,5.33
2022-10-09T00:59:18.920Z,8.57
2022-10-09T01:01:46.115Z,4.37
2022-10-09T01:04:13.205Z,7.60
2022-10-09T01:07:04.951Z,2.97
2022-10-09T01:09:37.842Z,4.97
2022-10-09T01:12:17.041Z,4.13
2022-10-09T01:14:51.997Z,2.60
2022-10-09T01:17:29.182Z,3.70
2022-10-09T01:20:14.564Z,4.27
2022-10-09T01:22:56.751Z,5.07
2022-10-09T01:25:32.306Z,5.33
2022-10-09T01:28:01.060Z,4.77
2022-10-09T01:30:28.159Z,4.40
2022-10-09T01:32:55.954Z,4.93
2022-10-09T01:35:23.939Z,7.23
2022-10-09T01:37:53.157Z,5.80
2022-10-09T01:40:21.383Z,2.70
2022-10-09T01:42:48.347Z,4.27
2022-10-09T01:45:15.884Z,6.90
2022-10-09T01:47:43.333Z,4.40
2022-10-09T01:50:27.340Z,4.00
2022-10-09T01:53:01.383Z,3.90
2022-10-09T01:55:54.653Z,7.13
2022-10-09T01:58:36.002Z,7.10
2022-10-09T02:01:22.308Z,5.77
2022-10-09T02:03:51.588Z,8.03
2022-10-09T02:06:19.861Z,5.80
2022-10-09T02:08:51.224Z,5.93
2022-10-09T02:11:18.508Z,4.97
2022-10-09T02:13:47.353Z,5.07
2022-10-09T02:16:19.925Z,5.37
2022-10-09T02:18:52.399Z,4.17
2022-10-09T02:21:26.249Z,6.70
2022-10-09T02:23:54.871Z,5.83
2022-10-09T02:26:21.884Z,3.60
2022-10-09T02:28:49.029Z,6.27
2022-10-09T02:31:28.937Z,4.40
2022-10-09T02:34:07.462Z,3.53
2022-10-09T02:36:35.171Z,2.73
2022-10-09T02:39:02.715Z,4.70
2022-10-09T02:41:29.414Z,2.53
2022-10-09T02:43:56.407Z,6.47
2022-10-09T02:46:24.041Z,4.27
2022-10-09T02:48:50.877Z,8.00
2022-10-09T02:51:17.909Z,6.53
2022-10-09T02:53:45.643Z,10.53
2022-10-09T02:56:12.714Z,5.53
2022-10-09T02:58:40.276Z,3.77
2022-10-09T03:01:07.299Z,4.33
2022-10-09T03:03:34.296Z,5.53
2022-10-09T03:06:02.501Z,6.00
2022-10-09T03:08:29.389Z,5.77
2022-10-09T03:10:56.422Z,4.53
2022-10-09T03:13:23.182Z,6.13
2022-10-09T03:15:49.910Z,4.47
2022-10-09T03:18:16.635Z,7.80
2022-10-09T03:20:43.479Z,6.97
2022-10-09T03:23:10.290Z,8.33
2022-10-09T03:25:36.985Z,7.60
2022-10-09T03:28:04.114Z,3.67
2022-10-09T03:30:30.906Z,9.60
2022-10-09T03:32:57.593Z,4.17
2022-10-09T03:35:24.382Z,6.57
2022-10-09T03:37:51.133Z,6.70
2022-10-09T03:40:18.370Z,6.60
2022-10-09T03:42:45.054Z,4.17
2022-10-09T03:45:11.881Z,5.70
2022-10-09T03:47:38.613Z,4.67
2022-10-09T03:50:05.973Z,4.17
2022-10-09T03:52:32.868Z,10.47
2022-10-09T03:54:59.595Z,9.87
2022-10-09T03:57:26.427Z,8.63
2022-10-09T03:59:53.212Z,9.07
2022-10-09T04:02:20.121Z,7.37
2022-10-09T04:04:46.898Z,6.90
2022-10-09T04:07:13.633Z,8.23
2022-10-09T04:09:40.381Z,7.80
2022-10-09T04:12:07.137Z,7.17
2022-10-09T04:14:33.977Z,7.43
2022-10-09T04:17:00.706Z,5.90
2022-10-09T04:19:27.745Z,7.23
2022-10-09T04:21:54.516Z,4.27
2022-10-09T04:24:21.479Z,10.63
2022-10-09T04:26:48.193Z,7.43
2022-10-09T04:29:14.999Z,7.93
2022-10-09T04:31:41.832Z,10.47
2022-10-09T04:34:08.662Z,5.33
2022-10-09T04:36:35.401Z,8.17
2022-10-09T04:39:02.103Z,8.70
2022-10-09T04:41:28.831Z,8.93
2022-10-09T04:43:56.835Z,5.53
2022-10-09T04:46:24.067Z,5.07
2022-10-09T04:48:51.042Z,5.73
2022-10-09T04:51:18.210Z,5.70
2022-10-09T04:53:45.589Z,8.90
2022-10-09T04:56:18.329Z,9.03
2022-10-09T04:58:46.469Z,8.33
2022-10-09T05:01:13.298Z,11.07
2022-10-09T05:03:40.261Z,7.97
2022-10-09T05:06:09.581Z,8.60
2022-10-09T05:08:37.132Z,7.83
2022-10-09T05:11:09.918Z,9.43
2022-10-09T05:13:38.902Z,9.03
2022-10-09T05:16:08.661Z,23.80
2022-10-09T05:18:36.170Z,6.93
2022-10-09T05:21:06.061Z,7.00
2022-10-09T05:23:32.921Z,11.77
2022-10-09T05:26:04.604Z,10.43
2022-10-09T05:28:32.485Z,6.83
2022-10-09T05:30:59.441Z,5.20
2022-10-09T05:33:26.103Z,6.10
2022-10-09T05:35:53.433Z,7.63
2022-10-09T05:38:21.253Z,7.23
2022-10-09T05:40:59.077Z,9.17
2022-10-09T05:43:28.193Z,6.53
2022-10-09T05:45:55.487Z,5.73
2022-10-09T05:48:22.565Z,4.60
2022-10-09T05:50:49.341Z,5.97
2022-10-09T05:53:16.136Z,8.07
2022-10-09T05:55:42.902Z,6.40
2022-10-09T05:58:09.680Z,4.00
2022-10-09T06:00:36.406Z,4.27
2022-10-09T06:03:03.120Z,3.90
2022-10-09T06:05:29.956Z,5.27
2022-10-09T06:07:56.630Z,4.30
2022-10-09T06:10:23.445Z,4.10
2022-10-09T06:12:50.581Z,3.37
2022-10-09T06:15:17.605Z,2.80
2022-10-09T06:17:44.422Z,3.17
2022-10-09T06:20:11.451Z,4.50
2022-10-09T06:22:38.200Z,4.13
2022-10-09T06:25:05.594Z,3.97
2022-10-09T06:27:32.427Z,3.30
2022-10-09T06:29:59.206Z,3.90
2022-10-09T06:32:26.035Z,4.50
2022-10-09T06:34:53.553Z,3.40
2022-10-09T06:37:20.473Z,3.17
2022-10-09T06:39:47.394Z,3.00
2022-10-09T06:42:14.441Z,3.33
2022-10-09T06:44:43.359Z,2.20
2022-10-09T06:47:10.134Z,1.90
2022-10-09T06:49:36.924Z,3.07
2022-10-09T06:52:03.745Z,1.90
2022-10-09T06:54:30.617Z,2.23
2022-10-09T06:56:57.291Z,2.13
2022-10-09T06:59:24.114Z,3.97
2022-10-09T07:01:51.105Z,1.93
2022-10-09T07:04:18.796Z,3.40
2022-10-09T07:06:47.594Z,2.50
2022-10-09T07:09:15.722Z,2.50
2022-10-09T07:11:49.319Z,2.50
2022-10-09T07:14:16.982Z,2.27
2022-10-09T07:16:46.321Z,2.57
2022-10-09T07:19:15.009Z,3.80
2022-10-09T07:21:44.388Z,2.50
2022-10-09T07:24:12.333Z,2.87
2022-10-09T07:26:42.567Z,2.80
2022-10-09T07:29:11.135Z,3.10
2022-10-09T07:31:38.034Z,2.53
2022-10-09T07:34:06.182Z,2.80
2022-10-09T07:36:33.054Z,2.50
2022-10-09T07:39:00.060Z,3.00
2022-10-09T07:41:28.964Z,3.50
2022-10-09T07:43:56.181Z,5.47
2022-10-09T07:46:24.408Z,2.50
2022-10-09T07:48:51.596Z,3.08
2022-10-09T07:51:19.582Z,2.60
2022-10-09T07:53:46.828Z,2.40
2022-10-09T07:56:18.277Z,2.38
2022-10-09T07:58:56.743Z,2.58
2022-10-09T08:01:24.311Z,3.65
2022-10-09T08:03:51.212Z,2.53
2022-10-09T08:06:18.881Z,2.15
2022-10-09T08:08:49.861Z,4.05
2022-10-09T08:11:17.897Z,2.38
2022-10-09T08:13:46.012Z,2.45
2022-10-09T08:16:14.515Z,2.45
2022-10-09T08:18:41.727Z,3.00
2022-10-09T08:21:13.070Z,2.40
2022-10-09T08:23:39.962Z,2.88
2022-10-09T08:26:17.360Z,1.98
2022-10-09T08:28:45.208Z,4.00
2022-10-09T08:31:13.988Z,4.10
2022-10-09T08:33:41.081Z,3.90
2022-10-09T08:36:10.162Z,2.80
2022-10-09T08:38:47.192Z,4.33
2022-10-09T08:41:46.564Z,3.00
2022-10-09T08:44:24.271Z,2.97
2022-10-09T08:47:17.579Z,3.03
2022-10-09T08:50:10.125Z,5.20
2022-10-09T08:52:49.999Z,2.70
2022-10-09T08:55:24.779Z,4.33
2022-10-09T08:57:54.816Z,3.83
2022-10-09T09:00:25.346Z,3.77
2022-10-09T09:03:29.221Z,3.40
2022-10-09T09:06:09.681Z,4.00
2022-10-09T09:09:05.699Z,4.40
2022-10-09T09:11:51.023Z,4.40
2022-10-09T09:14:55.141Z,4.10
2022-10-09T09:17:47.952Z,2.70
2022-10-09T09:20:23.854Z,3.70
2022-10-09T09:22:50.872Z,3.13
2022-10-09T09:25:34.884Z,3.73
2022-10-09T09:28:18.315Z,3.40
2022-10-09T09:30:50.502Z,2.97
2022-10-09T09:33:33.811Z,3.93
2022-10-09T09:36:33.306Z,4.77
2022-10-09T09:39:54.307Z,2.60
2022-10-09T09:41:47.730Z,3.80
2022-10-09T09:44:17.296Z,3.97
2022-10-09T09:46:46.297Z,3.30
2022-10-09T09:49:21.886Z,2.90
2022-10-09T09:51:50.497Z,2.93
2022-10-09T09:54:22.166Z,3.13
2022-10-09T09:57:12.002Z,2.60
2022-10-09T09:59:43.203Z,4.23
2022-10-09T10:02:17.868Z,5.93
2022-10-09T10:04:52.465Z,3.20
2022-10-09T10:07:34.409Z,4.10
2022-10-09T10:10:03.426Z,3.30
2022-10-09T10:12:30.373Z,2.60
2022-10-09T10:14:58.424Z,2.70
2022-10-09T10:17:34.849Z,2.97
2022-10-09T10:20:06.559Z,4.00
2022-10-09T10:22:33.759Z,3.93
2022-10-09T10:25:00.807Z,3.27
2022-10-09T10:27:42.556Z,2.23
2022-10-09T10:30:15.595Z,4.17
2022-10-09T10:33:10.345Z,2.53
2022-10-09T10:35:41.135Z,3.63
2022-10-09T10:38:44.983Z,6.70
2022-10-09T10:41:28.321Z,3.37
2022-10-09T10:44:02.377Z,3.93
2022-10-09T10:46:58.757Z,2.37
2022-10-09T10:49:28.414Z,2.83
2022-10-09T10:52:11.195Z,1.63
2022-10-09T10:54:48.855Z,2.93
2022-10-09T10:57:26.383Z,4.70
2022-10-09T11:00:06.265Z,4.17
2022-10-09T11:03:05.928Z,2.90
2022-10-09T11:05:38.625Z,3.03
2022-10-09T11:08:08.112Z,3.80
2022-10-09T11:10:40.198Z,3.93
2022-10-09T11:13:18.075Z,2.77
2022-10-09T11:16:26.869Z,4.07
2022-10-09T11:19:32.328Z,2.93
2022-10-09T11:22:11.167Z,2.87
2022-10-09T11:24:49.640Z,3.03
2022-10-09T11:27:23.083Z,2.20
2022-10-09T11:30:03.099Z,2.53
2022-10-09T11:32:35.725Z,1.53
2022-10-09T11:35:18.546Z,4.40
2022-10-09T11:38:00.992Z,2.13
2022-10-09T11:40:36.494Z,3.03
2022-10-09T11:43:08.312Z,3.90
2022-10-09T11:46:01.275Z,3.23
2022-10-09T11:48:54.771Z,3.13
2022-10-09T11:51:34.591Z,1.73
2022-10-09T11:54:03.620Z,3.13
2022-10-09T11:56:32.052Z,1.30
2022-10-09T11:59:04.958Z,2.93
2022-10-09T12:01:44.423Z,1.80
2022-10-09T12:04:13.975Z,2.60
2022-10-09T12:07:01.900Z,1.50
2022-10-09T12:09:30.774Z,1.40
2022-10-09T12:12:15.549Z,1.50
2022-10-09T12:14:45.401Z,3.07
2022-10-09T12:17:22.609Z,4.40
2022-10-09T12:19:58.561Z,1.70
2022-10-09T12:22:35.707Z,1.03
2022-10-09T12:25:23.940Z,2.30
2022-10-09T12:27:55.621Z,2.10
2022-10-09T12:30:28.935Z,1.43
2022-10-09T12:33:05.589Z,1.60
2022-10-09T12:35:36.361Z,1.23
2022-10-09T12:38:25.797Z,1.20
2022-10-09T12:40:54.272Z,1.30
2022-10-09T12:43:23.599Z,2.27
2022-10-09T12:45:52.998Z,1.30
2022-10-09T12:48:25.974Z,1.13
2022-10-09T12:50:53.411Z,1.20
2022-10-09T12:53:23.147Z,2.40
2022-10-09T12:56:00.388Z,1.80
2022-10-09T12:58:36.674Z,1.40
2022-10-09T13:01:07.277Z,1.70
2022-10-09T13:03:38.355Z,2.53
2022-10-09T13:06:15.589Z,1.50
2022-10-09T13:08:43.440Z,1.60
2022-10-09T13:11:11.386Z,3.90
2022-10-09T13:13:38.425Z,1.20
2022-10-09T13:16:09.554Z,1.30
2022-10-09T13:18:37.844Z,1.37
2022-10-09T13:21:22.236Z,2.23
2022-10-09T13:23:49.302Z,2.83
2022-10-09T13:26:23.567Z,1.60
2022-10-09T13:28:50.657Z,1.47
2022-10-09T13:31:19.033Z,1.80
2022-10-09T13:33:46.966Z,3.73
2022-10-09T13:36:15.077Z,3.47
2022-10-09T13:38:43.010Z,3.33
2022-10-09T13:41:24.846Z,2.23
2022-10-09T13:43:53.556Z,2.70
2022-10-09T13:46:20.510Z,2.27
2022-10-09T13:48:47.359Z,2.57
2022-10-09T13:51:14.258Z,3.60
2022-10-09T13:53:41.043Z,2.20
2022-10-09T13:56:09.494Z,2.13
2022-10-09T13:58:36.811Z,2.57
2022-10-09T14:01:04.089Z,2.87
2022-10-09T14:03:30.936Z,3.17
2022-10-09T14:05:59.511Z,3.20
2022-10-09T14:08:26.421Z,2.43
2022-10-09T14:10:53.293Z,2.10
2022-10-09T14:13:21.493Z,3.23
2022-10-09T14:15:48.399Z,2.87
2022-10-09T14:18:15.170Z,2.53
2022-10-09T14:20:41.929Z,3.10
2022-10-09T14:23:09.221Z,2.03
2022-10-09T14:25:35.985Z,3.97
2022-10-09T14:28:03.488Z,2.83
2022-10-09T14:30:30.777Z,2.67
2022-10-09T14:32:57.706Z,4.80
2022-10-09T14:35:24.485Z,5.87
2022-10-09T14:37:51.291Z,4.37
2022-10-09T14:40:18.077Z,3.20
2022-10-09T14:42:44.844Z,3.07
2022-10-09T14:45:11.626Z,3.13
2022-10-09T14:47:38.367Z,5.27
2022-10-09T14:50:05.711Z,4.40
2022-10-09T14:52:32.467Z,3.90
2022-10-09T14:54:59.278Z,4.13
2022-10-09T14:57:26.080Z,3.73
2022-10-09T14:59:53.116Z,2.20
2022-10-09T15:02:19.978Z,3.30
2022-10-09T15:04:46.819Z,3.40
2022-10-09T15:07:13.792Z,3.53
2022-10-09T15:09:40.544Z,4.07
2022-10-09T15:12:07.310Z,2.60
2022-10-09T15:14:34.058Z,3.33
2022-10-09T15:17:00.854Z,4.13
2022-10-09T15:19:27.630Z,4.20
2022-10-09T15:21:54.413Z,2.73
2022-10-09T15:24:21.131Z,2.83
2022-10-09T15:26:47.847Z,2.63
2022-10-09T15:29:14.626Z,4.87
2022-10-09T15:31:41.715Z,4.10
2022-10-09T15:34:10.158Z,3.70
2022-10-09T15:36:44.341Z,4.10
2022-10-09T15:39:11.676Z,5.23
2022-10-09T15:41:40.255Z,4.23
2022-10-09T15:44:14.665Z,3.10
2022-10-09T15:46:41.632Z,3.90
2022-10-09T15:49:08.817Z,6.87
2022-10-09T15:51:35.639Z,6.47
2022-10-09T15:54:02.624Z,4.33
2022-10-09T15:56:29.735Z,3.23
2022-10-09T15:58:57.908Z,5.93
2022-10-09T16:01:25.460Z,3.17
2022-10-09T16:03:52.541Z,2.43
2022-10-09T16:06:22.891Z,3.57
2022-10-09T16:08:50.488Z,3.17
2022-10-09T16:11:21.684Z,3.23
2022-10-09T16:13:52.332Z,2.77
2022-10-09T16:16:21.317Z,4.17
2022-10-09T16:18:50.479Z,2.53
2022-10-09T16:21:22.202Z,2.63
2022-10-09T16:23:50.708Z,6.43
2022-10-09T16:26:20.624Z,2.50
2022-10-09T16:28:48.165Z,3.87
2022-10-09T16:31:30.593Z,4.63
2022-10-09T16:33:58.520Z,3.27
2022-10-09T16:36:25.426Z,9.73
2022-10-09T16:38:52.296Z,2.87
2022-10-09T16:41:21.740Z,4.57
2022-10-09T16:43:51.266Z,2.93
2022-10-09T16:46:26.317Z,3.03
2022-10-09T16:48:55.150Z,3.67
2022-10-09T16:51:31.339Z,5.33
2022-10-09T16:54:00.029Z,4.27
2022-10-09T16:56:30.338Z,6.47
2022-10-09T16:58:58.717Z,7.07
2022-10-09T17:01:27.033Z,8.17
2022-10-09T17:03:55.404Z,20.73
2022-10-09T17:06:25.440Z,8.63
2022-10-09T17:08:54.074Z,11.43
2022-10-09T17:11:22.065Z,5.37
2022-10-09T17:13:49.028Z,3.03
2022-10-09T17:16:19.413Z,3.50
2022-10-09T17:18:47.515Z,4.43
2022-10-09T17:21:15.589Z,3.77
2022-10-09T17:23:42.711Z,4.20
2022-10-09T17:26:15.304Z,6.17
2022-10-09T17:28:43.078Z,6.57
2022-10-09T17:31:14.240Z,5.23
2022-10-09T17:33:45.827Z,6.17
2022-10-09T17:36:14.638Z,3.53
2022-10-09T17:38:41.391Z,5.20
2022-10-09T17:41:10.597Z,3.70
2022-10-09T17:43:37.992Z,3.63
2022-10-09T17:46:05.278Z,3.80
2022-10-09T17:48:33.948Z,7.43
2022-10-09T17:51:03.912Z,8.43
2022-10-09T17:53:31.220Z,6.43
2022-10-09T17:56:03.118Z,7.00
2022-10-09T17:58:29.890Z,4.43
2022-10-09T18:00:56.858Z,5.10
2022-10-09T18:03:24.364Z,9.13
2022-10-09T18:05:51.604Z,15.67
2022-10-09T18:08:19.444Z,8.97
2022-10-09T18:10:46.993Z,12.40
2022-10-09T18:13:14.291Z,12.07
2022-10-09T18:15:43.298Z,12.80
2022-10-09T18:18:11.516Z,6.90
2022-10-09T18:20:39.695Z,5.40
2022-10-09T18:23:08.296Z,3.37
2022-10-09T18:25:40.802Z,5.00
2022-10-09T18:28:07.969Z,3.17
2022-10-09T18:30:35.037Z,3.60
2022-10-09T18:33:01.847Z,5.00
2022-10-09T18:35:30.302Z,3.43
2022-10-09T18:37:57.341Z,3.37
2022-10-09T18:40:24.118Z,5.87
2022-10-09T18:42:52.225Z,6.13
2022-10-09T18:45:19.223Z,4.97
2022-10-09T18:47:46.197Z,3.57
2022-10-09T18:50:14.195Z,6.63
2022-10-09T18:52:42.603Z,3.70
2022-10-09T18:55:12.224Z,3.97
2022-10-09T18:57:40.551Z,3.40
2022-10-09T19:00:08.037Z,3.20
2022-10-09T19:02:34.897Z,4.80
2022-10-09T19:05:02.031Z,5.63
2022-10-09T19:07:29.144Z,4.13
2022-10-09T19:09:57.433Z,3.83
2022-10-09T19:12:25.768Z,4.33
2022-10-09T19:14:52.780Z,5.90
2022-10-09T19:17:19.879Z,6.67
2022-10-09T19:19:46.669Z,6.47
2022-10-09T19:22:16.450Z,7.67
2022-10-09T19:24:44.386Z,6.13
2022-10-09T19:27:11.366Z,4.37
2022-10-09T19:29:38.225Z,4.43
2022-10-09T19:32:04.991Z,4.90
2022-10-09T19:34:31.983Z,6.90
2022-10-09T19:36:58.778Z,5.30
2022-10-09T19:39:25.704Z,5.80
2022-10-09T19:41:52.490Z,4.93
2022-10-09T19:44:19.505Z,5.03
2022-10-09T19:46:46.740Z,6.23
2022-10-09T19:49:13.617Z,5.73
2022-10-09T19:51:40.532Z,5.20
2022-10-09T19:54:08.457Z,6.47
2022-10-09T19:56:36.095Z,4.67
2022-10-09T19:59:05.575Z,6.03
2022-10-09T20:01:35.330Z,5.43
2022-10-09T20:04:05.230Z,5.93
2022-10-09T20:06:32.070Z,4.40
2022-10-09T20:08:59.312Z,6.63
2022-10-09T20:11:26.966Z,6.00
2022-10-09T20:13:56.125Z,7.27
2022-10-09T20:16:24.880Z,4.80
2022-10-09T20:18:51.757Z,5.60
2022-10-09T20:21:18.675Z,4.13
2022-10-09T20:23:45.585Z,4.57
2022-10-09T20:26:16.053Z,5.50
2022-10-09T20:28:43.959Z,5.23
2022-10-09T20:31:14.713Z,7.03
2022-10-09T20:33:42.609Z,5.03
2022-10-09T20:36:17.645Z,6.30
2022-10-09T20:38:44.459Z,4.67
2022-10-09T20:41:11.743Z,4.97
2022-10-09T20:43:40.528Z,6.40
2022-10-09T20:46:07.763Z,7.97
2022-10-09T20:48:34.657Z,5.33
2022-10-09T20:51:01.793Z,6.43
2022-10-09T20:53:28.514Z,5.07
2022-10-09T20:56:03.338Z,5.20
2022-10-09T20:58:30.311Z,5.33
2022-10-09T21:00:57.386Z,4.40
2022-10-09T21:03:24.325Z,5.00
2022-10-09T21:05:51.095Z,9.10
2022-10-09T21:08:17.859Z,10.73
2022-10-09T21:10:49.680Z,17.17
2022-10-09T21:13:17.150Z,11.67
2022-10-09T21:15:49.102Z,10.27
2022-10-09T21:18:18.001Z,5.37
2022-10-09T21:20:46.613Z,6.17
2022-10-09T21:23:15.840Z,7.37
2022-10-09T21:25:50.996Z,6.20
2022-10-09T21:28:20.233Z,5.07
2022-10-09T21:30:47.430Z,6.37
2022-10-09T21:33:14.610Z,6.20
2022-10-09T21:35:44.059Z,6.47
2022-10-09T21:38:13.118Z,6.30
2022-10-09T21:40:40.448Z,7.10
2022-10-09T21:43:08.117Z,6.70
2022-10-09T21:45:35.094Z,10.67
2022-10-09T21:48:01.822Z,7.27
2022-10-09T21:50:28.885Z,8.60
2022-10-09T21:52:55.790Z,6.13
2022-10-09T21:55:22.530Z,7.80
2022-10-09T21:57:49.487Z,7.17
2022-10-09T22:00:16.783Z,7.00
2022-10-09T22:02:43.554Z,10.27
2022-10-09T22:05:10.871Z,8.60
2022-10-09T22:07:37.662Z,8.43
2022-10-09T22:10:05.252Z,7.23
2022-10-09T22:12:32.594Z,7.57
2022-10-09T22:14:59.332Z,7.53
2022-10-09T22:17:26.324Z,7.47
2022-10-09T22:19:53.366Z,9.33
2022-10-09T22:22:20.101Z,8.60
2022-10-09T22:24:46.818Z,7.83
2022-10-09T22:27:13.582Z,7.07
2022-10-09T22:29:40.303Z,7.77
2022-10-09T22:32:10.294Z,7.70
2022-10-09T22:34:37.704Z,9.50
2022-10-09T22:37:04.962Z,11.10
2022-10-09T22:39:31.765Z,10.67
2022-10-09T22:41:58.523Z,8.90
2022-10-09T22:44:25.364Z,9.57
2022-10-09T22:46:52.109Z,9.00
2022-10-09T22:49:18.947Z,7.73
2022-10-09T22:51:45.731Z,8.23
2022-10-09T22:54:13.112Z,7.87
2022-10-09T22:56:42.351Z,9.67
2022-10-09T22:59:11.709Z,7.63
2022-10-09T23:01:41.602Z,8.13
2022-10-09T23:04:11.541Z,10.77
2022-10-09T23:06:39.403Z,11.87
2022-10-09T23:09:08.204Z,8.70
2022-10-09T23:11:35.625Z,8.30
2022-10-09T23:14:03.345Z,11.00
2022-10-09T23:16:30.545Z,7.57
2022-10-09T23:19:01.912Z,8.43
2022-10-09T23:21:31.559Z,10.43
2022-10-09T23:23:58.561Z,9.13
2022-10-09T23:26:28.174Z,10.77
2022-10-09T23:29:01.436Z,8.67
2022-10-09T23:31:28.979Z,8.43
2022-10-09T23:33:56.256Z,12.13
2022-10-09T23:36:25.992Z,8.50
2022-10-09T23:38:53.281Z,8.03
2022-10-09T23:41:26.262Z,8.30
2022-10-09T23:43:53.710Z,9.13
2022-10-09T23:46:22.886Z,11.23
2022-10-09T23:48:50.588Z,8.60
2022-10-09T23:51:19.063Z,9.90
2022-10-09T23:53:46.611Z,7.77
2022-10-09T23:56:21.282Z,7.53
2022-10-09T23:58:48.548Z,8.63
